createdAt,value
2022-08-17T00:01:33.350Z,27.28
2022-08-17T00:04:19.390Z,27.18
2022-08-17T00:06:49.240Z,27.24
2022-08-17T00:09:19.057Z,27.23
2022-08-17T00:12:40.695Z,27.22
2022-08-17T00:14:35.174Z,27.21
2022-08-17T00:17:03.773Z,27.20
2022-08-17T00:19:32.462Z,27.21
2022-08-17T00:22:32.989Z,27.20
2022-08-17T00:24:47.320Z,27.17
2022-08-17T00:27:13.933Z,27.18
2022-08-17T00:29:40.610Z,27.14
2022-08-17T00:33:15.603Z,27.10
2022-08-17T00:34:53.758Z,27.07
2022-08-17T00:37:20.319Z,27.05
2022-08-17T00:39:46.908Z,27.11
2022-08-17T00:42:18.823Z,27.10
2022-08-17T00:44:46.237Z,27.11
2022-08-17T00:47:12.789Z,27.13
2022-08-17T00:49:39.563Z,27.10
2022-08-17T00:52:15.526Z,27.10
2022-08-17T00:54:46.524Z,27.11
2022-08-17T00:57:18.549Z,27.11
2022-08-17T01:00:01.909Z,27.10
2022-08-17T01:02:34.936Z,27.09
2022-08-17T01:05:14.881Z,27.10
2022-08-17T01:07:42.864Z,27.06
2022-08-17T01:10:58.881Z,27.06
2022-08-17T01:13:02.513Z,27.04
2022-08-17T01:15:36.493Z,27.06
2022-08-17T01:18:05.400Z,27.04
2022-08-17T01:20:32.539Z,27.02
2022-08-17T01:23:19.867Z,27.01
2022-08-17T01:25:53.386Z,27.02
2022-08-17T01:28:52.251Z,27.00
2022-08-17T01:31:09.243Z,26.99
2022-08-17T01:33:36.549Z,26.95
2022-08-17T01:36:04.173Z,26.95
2022-08-17T01:38:31.919Z,26.89
2022-08-17T01:41:07.922Z,26.93
2022-08-17T01:43:57.296Z,26.90
2022-08-17T01:46:28.254Z,26.89
2022-08-17T01:48:56.461Z,26.88
2022-08-17T01:51:25.937Z,26.84
2022-08-17T01:53:57.540Z,26.83
2022-08-17T01:56:25.423Z,26.86
2022-08-17T01:58:52.831Z,26.83
2022-08-17T02:01:22.825Z,26.87
2022-08-17T02:03:56.203Z,26.84
2022-08-17T02:06:47.051Z,26.83
2022-08-17T02:09:19.215Z,26.79
2022-08-17T02:11:49.929Z,26.74
2022-08-17T02:14:16.761Z,26.77
2022-08-17T02:16:43.681Z,26.77
2022-08-17T02:19:15.600Z,26.73
2022-08-17T02:21:44.795Z,26.73
2022-08-17T02:25:00.288Z,26.70
2022-08-17T02:27:05.960Z,26.67
2022-08-17T02:29:32.760Z,26.63
2022-08-17T02:32:00.269Z,26.61
2022-08-17T02:34:27.522Z,26.58
2022-08-17T02:36:54.090Z,26.62
2022-08-17T02:39:20.630Z,26.59
2022-08-17T02:41:47.383Z,26.57
2022-08-17T02:44:13.938Z,26.57
2022-08-17T02:47:00.857Z,26.52
2022-08-17T02:49:27.408Z,26.55
2022-08-17T02:51:53.894Z,26.51
2022-08-17T02:54:40.076Z,26.52
2022-08-17T02:57:06.880Z,26.49
2022-08-17T02:59:33.391Z,26.44
2022-08-17T03:01:59.927Z,26.44
2022-08-17T03:04:26.484Z,26.43
2022-08-17T03:06:53.089Z,26.43
2022-08-17T03:09:19.596Z,26.36
2022-08-17T03:11:46.147Z,26.36
2022-08-17T03:14:13.157Z,26.38
2022-08-17T03:16:41.008Z,26.37
2022-08-17T03:19:08.999Z,26.31
2022-08-17T03:21:35.576Z,26.24
2022-08-17T03:24:02.426Z,26.26
2022-08-17T03:26:35.486Z,26.29
2022-08-17T03:29:02.020Z,26.29
2022-08-17T03:31:28.647Z,26.30
2022-08-17T03:33:56.261Z,26.23
2022-08-17T03:36:23.190Z,26.22
2022-08-17T03:38:49.695Z,26.22
2022-08-17T03:41:17.688Z,26.24
2022-08-17T03:43:44.195Z,26.26
2022-08-17T03:46:35.145Z,26.25
2022-08-17T03:49:26.914Z,26.26
2022-08-17T03:52:13.505Z,26.27
2022-08-17T03:55:00.619Z,26.29
2022-08-17T03:57:27.482Z,26.27
2022-08-17T03:59:55.278Z,26.31
2022-08-17T04:02:25.599Z,26.32
2022-08-17T04:04:53.806Z,26.32
2022-08-17T04:07:22.862Z,26.33
2022-08-17T04:09:49.465Z,26.31
2022-08-17T04:12:18.540Z,26.30
2022-08-17T04:14:53.503Z,26.28
2022-08-17T04:17:26.862Z,26.29
2022-08-17T04:19:54.488Z,26.29
2022-08-17T04:22:30.753Z,26.26
2022-08-17T04:25:05.205Z,26.24
2022-08-17T04:27:31.832Z,26.23
2022-08-17T04:29:58.713Z,26.21
2022-08-17T04:32:59.337Z,26.20
2022-08-17T04:35:11.906Z,26.14
2022-08-17T04:37:38.413Z,26.16
2022-08-17T04:40:28.606Z,26.14
2022-08-17T04:43:04.180Z,26.15
2022-08-17T04:45:32.361Z,26.13
2022-08-17T04:48:00.429Z,26.08
2022-08-17T04:50:27.489Z,26.08
2022-08-17T04:52:54.053Z,26.07
2022-08-17T04:55:20.772Z,26.05
2022-08-17T04:57:47.293Z,26.03
2022-08-17T05:00:14.190Z,26.01
2022-08-17T05:02:50.947Z,25.99
2022-08-17T05:05:22.933Z,26.00
2022-08-17T05:07:58.788Z,25.99
2022-08-17T05:10:28.240Z,25.95
2022-08-17T05:13:07.137Z,25.98
2022-08-17T05:15:36.214Z,25.99
2022-08-17T05:18:03.662Z,25.97
2022-08-17T05:20:30.406Z,25.96
2022-08-17T05:22:59.643Z,25.96
2022-08-17T05:25:32.763Z,25.93
2022-08-17T05:28:02.206Z,25.91
2022-08-17T05:30:28.855Z,25.87
2022-08-17T05:33:00.503Z,25.84
2022-08-17T05:35:29.609Z,25.83
2022-08-17T05:37:57.559Z,25.83
2022-08-17T05:40:25.983Z,25.83
2022-08-17T05:43:10.831Z,25.82
2022-08-17T05:46:02.088Z,25.82
2022-08-17T05:48:35.536Z,25.82
2022-08-17T05:51:09.450Z,25.85
2022-08-17T05:54:04.453Z,25.89
2022-08-17T05:56:34.032Z,25.90
2022-08-17T05:59:13.586Z,25.86
2022-08-17T06:02:05.323Z,25.90
2022-08-17T06:04:40.674Z,25.87
2022-08-17T06:07:28.352Z,25.83
2022-08-17T06:10:10.872Z,25.74
2022-08-17T06:12:49.820Z,25.76
2022-08-17T06:15:34.489Z,25.72
2022-08-17T06:18:05.642Z,25.67
2022-08-17T06:20:53.180Z,25.60
2022-08-17T06:23:42.809Z,25.59
2022-08-17T06:26:17.559Z,25.57
2022-08-17T06:28:53.150Z,25.56
2022-08-17T06:31:22.535Z,25.56
2022-08-17T06:33:50.425Z,25.56
2022-08-17T06:36:32.785Z,25.55
2022-08-17T06:39:08.095Z,25.54
2022-08-17T06:41:51.061Z,25.51
2022-08-17T06:44:43.682Z,25.46
2022-08-17T06:47:28.726Z,25.44
2022-08-17T06:50:01.500Z,25.42
2022-08-17T06:52:45.763Z,25.39
2022-08-17T06:55:21.342Z,25.35
2022-08-17T06:57:52.482Z,25.36
2022-08-17T07:00:23.850Z,25.39
2022-08-17T07:03:06.235Z,25.38
2022-08-17T07:05:38.851Z,25.36
2022-08-17T07:08:35.798Z,25.37
2022-08-17T07:11:09.924Z,25.37
2022-08-17T07:13:43.263Z,25.37
2022-08-17T07:16:24.860Z,25.36
2022-08-17T07:18:54.674Z,25.24
2022-08-17T07:21:51.959Z,25.35
2022-08-17T07:24:35.494Z,25.30
2022-08-17T07:27:37.111Z,25.31
2022-08-17T07:30:10.827Z,25.29
2022-08-17T07:32:51.144Z,25.27
2022-08-17T07:35:37.754Z,25.21
2022-08-17T07:38:56.439Z,25.21
2022-08-17T07:41:23.274Z,25.14
2022-08-17T07:43:52.527Z,25.20
2022-08-17T07:46:43.927Z,25.21
2022-08-17T07:49:10.392Z,25.25
2022-08-17T07:51:39.265Z,25.29
2022-08-17T07:54:29.523Z,25.31
2022-08-17T07:57:00.240Z,25.33
2022-08-17T07:59:33.236Z,25.34
2022-08-17T08:02:06.201Z,25.36
2022-08-17T08:04:59.829Z,25.36
2022-08-17T08:07:31.968Z,25.39
2022-08-17T08:10:07.588Z,25.44
2022-08-17T08:12:36.298Z,25.43
2022-08-17T08:15:12.598Z,25.44
2022-08-17T08:17:50.055Z,25.41
2022-08-17T08:20:37.850Z,25.38
2022-08-17T08:23:19.087Z,25.39
2022-08-17T08:26:18.463Z,25.37
2022-08-17T08:29:28.103Z,25.35
2022-08-17T08:32:20.457Z,25.37
2022-08-17T08:35:02.878Z,25.34
2022-08-17T08:37:55.905Z,25.34
2022-08-17T08:40:44.067Z,25.33
2022-08-17T08:43:10.709Z,25.33
2022-08-17T08:46:01.928Z,25.29
2022-08-17T08:48:53.043Z,25.28
2022-08-17T08:51:52.779Z,25.26
2022-08-17T08:54:48.306Z,25.26
2022-08-17T08:57:34.142Z,25.28
2022-08-17T09:00:19.065Z,25.34
2022-08-17T09:02:54.456Z,25.35
2022-08-17T09:05:42.740Z,25.34
2022-08-17T09:08:09.171Z,25.35
2022-08-17T09:10:44.826Z,25.37
2022-08-17T09:13:22.110Z,25.32
2022-08-17T09:15:57.311Z,25.33
2022-08-17T09:19:03.034Z,25.34
2022-08-17T09:21:27.116Z,25.37
2022-08-17T09:24:23.884Z,25.39
2022-08-17T09:26:59.389Z,25.34
2022-08-17T09:29:29.521Z,25.38
2022-08-17T09:31:59.615Z,25.39
2022-08-17T09:34:43.573Z,25.38
2022-08-17T09:37:25.843Z,25.39
2022-08-17T09:40:09.597Z,25.39
2022-08-17T09:42:45.452Z,25.41
2022-08-17T09:45:30.985Z,25.41
2022-08-17T09:48:18.165Z,25.41
2022-08-17T09:51:05.453Z,25.38
2022-08-17T09:53:36.779Z,25.32
2022-08-17T09:56:08.981Z,25.34
2022-08-17T09:59:04.663Z,25.34
2022-08-17T10:01:43.103Z,25.32
2022-08-17T10:04:23.809Z,25.22
2022-08-17T10:07:03.574Z,25.18
2022-08-17T10:09:46.339Z,25.15
2022-08-17T10:12:29.797Z,25.16
2022-08-17T10:15:22.494Z,25.17
2022-08-17T10:18:08.808Z,25.22
2022-08-17T10:21:26.451Z,25.29
2022-08-17T10:24:28.329Z,25.33
2022-08-17T10:26:57.613Z,25.36
2022-08-17T10:29:49.058Z,25.36
2022-08-17T10:32:37.400Z,25.36
2022-08-17T10:35:18.639Z,25.42
2022-08-17T10:38:21.531Z,25.37
2022-08-17T10:41:01.009Z,25.40
2022-08-17T10:43:36.868Z,25.39
2022-08-17T10:46:30.695Z,25.37
2022-08-17T10:49:17.095Z,25.37
2022-08-17T10:51:47.951Z,25.37
2022-08-17T10:54:58.645Z,25.38
2022-08-17T10:57:34.680Z,25.44
2022-08-17T11:00:28.434Z,25.46
2022-08-17T11:02:57.497Z,25.48
2022-08-17T11:05:58.923Z,25.49
2022-08-17T11:08:56.584Z,25.43
2022-08-17T11:11:38.417Z,25.44
2022-08-17T11:14:34.831Z,25.49
2022-08-17T11:17:19.343Z,25.46
2022-08-17T11:20:00.709Z,25.46
2022-08-17T11:22:45.812Z,25.47
2022-08-17T11:25:14.909Z,25.44
2022-08-17T11:27:44.659Z,25.47
2022-08-17T11:30:15.033Z,25.57
2022-08-17T11:32:54.560Z,25.65
2022-08-17T11:35:21.569Z,25.69
2022-08-17T11:37:48.029Z,25.69
2022-08-17T11:40:20.628Z,25.71
2022-08-17T11:43:15.543Z,25.70
2022-08-17T11:46:05.263Z,25.67
2022-08-17T11:49:11.592Z,25.65
2022-08-17T11:52:29.904Z,25.57
2022-08-17T11:55:17.757Z,25.64
2022-08-17T11:57:59.767Z,25.68
2022-08-17T12:00:44.647Z,25.72
2022-08-17T12:03:36.926Z,25.75
2022-08-17T12:06:07.376Z,25.77
2022-08-17T12:08:43.350Z,25.79
2022-08-17T12:12:10.951Z,25.78
2022-08-17T12:14:51.720Z,25.73
2022-08-17T12:17:39.317Z,25.75
2022-08-17T12:20:29.769Z,25.67
2022-08-17T12:23:11.194Z,25.75
2022-08-17T12:25:45.468Z,25.72
2022-08-17T12:28:27.151Z,25.76
2022-08-17T12:30:56.300Z,25.76
2022-08-17T12:33:28.511Z,25.76
2022-08-17T12:36:05.235Z,25.77
2022-08-17T12:38:36.120Z,25.78
2022-08-17T12:41:25.049Z,25.72
2022-08-17T12:44:12.527Z,25.68
2022-08-17T12:46:54.418Z,25.60
2022-08-17T12:49:34.270Z,25.55
2022-08-17T12:52:06.798Z,25.56
2022-08-17T12:54:38.123Z,25.50
2022-08-17T12:57:12.439Z,25.54
2022-08-17T12:59:53.194Z,25.57
2022-08-17T13:02:44.376Z,25.58
2022-08-17T13:05:42.043Z,25.60
2022-08-17T13:08:20.081Z,25.63
2022-08-17T13:10:58.582Z,25.64
2022-08-17T13:13:27.959Z,25.65
2022-08-17T13:16:01.086Z,25.60
2022-08-17T13:18:38.318Z,25.63
2022-08-17T13:21:06.854Z,25.58
2022-08-17T13:23:33.565Z,25.58
2022-08-17T13:26:05.316Z,25.60
2022-08-17T13:28:36.073Z,25.55
2022-08-17T13:31:33.657Z,25.56
2022-08-17T13:34:25.390Z,25.55
2022-08-17T13:37:32.547Z,25.51
2022-08-17T13:40:10.205Z,25.49
2022-08-17T13:42:52.023Z,25.48
2022-08-17T13:45:36.156Z,25.45
2022-08-17T13:48:17.400Z,25.44
2022-08-17T13:50:56.065Z,25.42
2022-08-17T13:53:33.127Z,25.39
2022-08-17T13:56:07.351Z,25.40
2022-08-17T13:59:00.159Z,25.36
2022-08-17T14:01:53.628Z,25.33
2022-08-17T14:04:24.199Z,25.34
2022-08-17T14:06:57.806Z,25.37
2022-08-17T14:09:36.978Z,25.35
2022-08-17T14:12:06.848Z,25.38
2022-08-17T14:14:33.362Z,25.37
2022-08-17T14:16:59.989Z,25.34
2022-08-17T14:19:26.926Z,25.38
2022-08-17T14:21:58.806Z,25.39
2022-08-17T14:24:31.533Z,25.40
2022-08-17T14:26:59.860Z,25.36
2022-08-17T14:29:29.308Z,25.39
2022-08-17T14:31:57.574Z,25.40
2022-08-17T14:34:25.454Z,25.37
2022-08-17T14:36:52.384Z,25.40
2022-08-17T14:39:19.769Z,25.39
2022-08-17T14:41:46.608Z,25.36
2022-08-17T14:44:13.331Z,25.41
2022-08-17T14:46:41.129Z,25.40
2022-08-17T14:49:09.138Z,25.37
2022-08-17T14:51:39.376Z,25.38
2022-08-17T14:54:11.531Z,25.38
2022-08-17T14:57:04.657Z,25.32
2022-08-17T14:59:44.512Z,25.34
2022-08-17T15:02:11.262Z,25.34
2022-08-17T15:04:41.988Z,25.30
2022-08-17T15:07:11.543Z,25.29
2022-08-17T15:09:38.089Z,25.32
2022-08-17T15:12:08.221Z,25.31
2022-08-17T15:14:36.123Z,25.26
2022-08-17T15:17:03.809Z,25.25
2022-08-17T15:19:30.674Z,25.30
2022-08-17T15:21:57.383Z,25.25
2022-08-17T15:24:23.893Z,25.27
2022-08-17T15:26:51.419Z,25.24
2022-08-17T15:29:17.974Z,25.19
2022-08-17T15:31:44.540Z,25.22
2022-08-17T15:34:11.061Z,25.24
2022-08-17T15:36:37.812Z,25.24
2022-08-17T15:39:07.824Z,25.21
2022-08-17T15:41:34.887Z,25.23
2022-08-17T15:44:01.424Z,25.19
2022-08-17T15:46:28.334Z,25.23
2022-08-17T15:48:59.935Z,25.22
2022-08-17T15:51:30.456Z,25.27
2022-08-17T15:54:04.410Z,25.27
2022-08-17T15:56:44.241Z,25.23
2022-08-17T15:59:10.823Z,25.22
2022-08-17T16:03:01.734Z,25.21
2022-08-17T16:04:29.701Z,25.21
2022-08-17T16:06:57.354Z,25.23
2022-08-17T16:09:23.884Z,25.29
2022-08-17T16:11:53.645Z,25.31
2022-08-17T16:14:22.607Z,25.30
2022-08-17T16:16:50.610Z,25.32
2022-08-17T16:19:17.225Z,25.35
2022-08-17T16:21:43.765Z,25.40
2022-08-17T16:24:13.213Z,25.42
2022-08-17T16:26:40.345Z,25.41
2022-08-17T16:29:07.789Z,25.44
2022-08-17T16:31:36.086Z,25.42
2022-08-17T16:34:17.371Z,25.43
2022-08-17T16:36:55.473Z,25.42
2022-08-17T16:39:25.482Z,25.43
2022-08-17T16:41:51.983Z,25.42
2022-08-17T16:44:21.107Z,25.37
2022-08-17T16:46:48.710Z,25.41
2022-08-17T16:49:35.489Z,25.39
2022-08-17T16:52:05.442Z,25.39
2022-08-17T16:54:32.644Z,25.39
2022-08-17T16:56:59.156Z,25.39
2022-08-17T16:59:31.120Z,25.39
2022-08-17T17:02:10.796Z,25.40
2022-08-17T17:05:03.121Z,25.36
2022-08-17T17:07:33.677Z,25.41
2022-08-17T17:10:14.245Z,25.39
2022-08-17T17:13:02.594Z,25.42
2022-08-17T17:15:46.031Z,25.41
2022-08-17T17:18:15.362Z,25.43
2022-08-17T17:20:54.730Z,25.44
2022-08-17T17:23:33.926Z,25.45
2022-08-17T17:26:08.806Z,25.45
2022-08-17T17:29:00.162Z,25.45
2022-08-17T17:31:38.444Z,25.45
2022-08-17T17:34:07.715Z,25.42
2022-08-17T17:36:48.452Z,25.43
2022-08-17T17:39:43.596Z,25.45
2022-08-17T17:42:14.553Z,25.41
2022-08-17T17:45:04.074Z,25.46
2022-08-17T17:47:31.489Z,25.46
2022-08-17T17:50:01.003Z,25.44
2022-08-17T17:52:40.962Z,25.41
2022-08-17T17:55:33.608Z,25.44
2022-08-17T17:58:02.933Z,25.44
2022-08-17T18:00:39.779Z,25.44
2022-08-17T18:03:31.093Z,25.44
2022-08-17T18:06:06.362Z,25.42
2022-08-17T18:09:06.323Z,25.40
2022-08-17T18:11:45.231Z,25.40
2022-08-17T18:14:32.229Z,25.40
2022-08-17T18:17:00.536Z,25.36
2022-08-17T18:19:28.836Z,25.38
2022-08-17T18:22:14.469Z,25.32
2022-08-17T18:24:44.414Z,25.37
2022-08-17T18:27:38.279Z,25.36
2022-08-17T18:30:10.757Z,25.34
2022-08-17T18:32:46.502Z,25.32
2022-08-17T18:35:14.226Z,25.31
2022-08-17T18:37:45.572Z,25.27
2022-08-17T18:40:26.457Z,25.29
2022-08-17T18:43:27.127Z,25.27
2022-08-17T18:45:56.148Z,25.25
2022-08-17T18:48:52.710Z,25.22
2022-08-17T18:51:39.850Z,25.20
2022-08-17T18:54:09.448Z,25.23
2022-08-17T18:56:43.307Z,25.21
2022-08-17T18:59:26.919Z,25.19
2022-08-17T19:01:58.214Z,25.20
2022-08-17T19:04:28.394Z,25.18
2022-08-17T19:07:06.874Z,25.20
2022-08-17T19:09:37.009Z,25.20
2022-08-17T19:12:08.209Z,25.14
2022-08-17T19:14:35.619Z,25.17
2022-08-17T19:17:11.932Z,25.17
2022-08-17T19:19:55.977Z,25.16
2022-08-17T19:22:30.992Z,25.11
2022-08-17T19:25:16.068Z,25.10
2022-08-17T19:27:57.837Z,25.14
2022-08-17T19:30:24.974Z,25.13
2022-08-17T19:32:53.041Z,25.13
2022-08-17T19:35:24.759Z,25.12
2022-08-17T19:38:00.728Z,25.12
2022-08-17T19:40:51.576Z,25.12
2022-08-17T19:43:28.535Z,25.12
2022-08-17T19:46:07.160Z,25.14
2022-08-17T19:48:48.777Z,25.14
2022-08-17T19:51:30.358Z,25.15
2022-08-17T19:54:15.051Z,25.16
2022-08-17T19:56:47.636Z,25.14
2022-08-17T19:59:20.144Z,25.13
2022-08-17T20:01:54.712Z,25.10
2022-08-17T20:04:35.497Z,25.08
2022-08-17T20:07:08.128Z,25.09
2022-08-17T20:09:38.306Z,25.09
2022-08-17T20:12:10.306Z,25.04
2022-08-17T20:15:07.341Z,25.03
2022-08-17T20:17:43.356Z,25.01
2022-08-17T20:20:48.502Z,24.98
2022-08-17T20:23:49.071Z,24.95
2022-08-17T20:26:41.408Z,24.95
2022-08-17T20:29:18.501Z,24.80
2022-08-17T20:32:06.219Z,24.97
2022-08-17T20:34:38.099Z,24.96
2022-08-17T20:37:31.179Z,25.00
2022-08-17T20:39:57.666Z,24.99
2022-08-17T20:42:24.356Z,24.98
2022-08-17T20:44:54.515Z,24.98
2022-08-17T20:48:15.133Z,24.98
2022-08-17T20:50:43.484Z,24.98
2022-08-17T20:53:15.374Z,24.96
2022-08-17T20:55:52.312Z,24.95
2022-08-17T20:58:30.869Z,24.95
2022-08-17T21:00:57.974Z,24.94
2022-08-17T21:03:25.294Z,24.92
2022-08-17T21:05:52.627Z,24.93
2022-08-17T21:08:53.231Z,24.92
2022-08-17T21:11:57.113Z,24.90
2022-08-17T21:14:29.351Z,24.86
2022-08-17T21:17:22.221Z,24.90
2022-08-17T21:20:10.511Z,24.88
2022-08-17T21:23:22.696Z,24.86
2022-08-17T21:26:09.808Z,24.81
2022-08-17T21:29:00.842Z,24.80
2022-08-17T21:31:43.119Z,24.76
2022-08-17T21:34:16.635Z,24.75
2022-08-17T21:36:45.183Z,24.75
2022-08-17T21:39:14.338Z,24.75
2022-08-17T21:41:48.133Z,24.76
2022-08-17T21:44:17.634Z,24.77
2022-08-17T21:46:46.924Z,24.78
2022-08-17T21:49:19.541Z,24.79
2022-08-17T21:51:54.087Z,24.76
2022-08-17T21:54:39.851Z,24.79
2022-08-17T21:57:16.774Z,24.72
2022-08-17T21:59:44.212Z,24.73
2022-08-17T22:02:21.576Z,24.70
2022-08-17T22:05:11.121Z,24.67
2022-08-17T22:07:50.561Z,24.68
2022-08-17T22:10:35.328Z,24.73
2022-08-17T22:13:29.324Z,24.70
2022-08-17T22:16:28.400Z,24.76
2022-08-17T22:18:58.132Z,24.78
2022-08-17T22:21:25.189Z,24.75
2022-08-17T22:24:06.086Z,24.79
2022-08-17T22:26:59.442Z,24.77
2022-08-17T22:29:53.317Z,24.75
2022-08-17T22:32:44.597Z,24.75
2022-08-17T22:35:35.921Z,24.73
2022-08-17T22:38:20.737Z,24.73
2022-08-17T22:40:53.867Z,24.67
2022-08-17T22:43:26.584Z,24.70
2022-08-17T22:45:56.714Z,24.64
2022-08-17T22:48:27.963Z,24.68
2022-08-17T22:51:13.881Z,24.63
2022-08-17T22:54:09.955Z,24.64
2022-08-17T22:56:55.997Z,24.62
2022-08-17T22:59:39.264Z,24.62
2022-08-17T23:02:30.123Z,24.63
2022-08-17T23:08:01.692Z,24.67
2022-08-17T23:13:13.892Z,24.66
2022-08-17T23:15:41.008Z,24.68
2022-08-17T23:18:07.997Z,24.66
2022-08-17T23:20:37.184Z,24.69
2022-08-17T23:23:06.787Z,24.69
2022-08-17T23:25:34.654Z,24.67
2022-08-17T23:28:03.260Z,24.69
2022-08-17T23:30:31.782Z,24.69
2022-08-17T23:33:01.260Z,24.70
2022-08-17T23:35:39.354Z,24.68
2022-08-17T23:38:11.940Z,24.68
2022-08-17T23:40:39.622Z,24.67
2022-08-17T23:43:23.356Z,24.62
2022-08-17T23:45:52.599Z,24.67
2022-08-17T23:48:36.189Z,24.62
2022-08-17T23:51:25.616Z,24.65
2022-08-17T23:53:56.586Z,24.65
2022-08-17T23:56:25.743Z,24.65
2022-08-17T23:58:54.800Z,24.63
